Time;durP1;ratioP1;P1;durP2;ratioP2;P2;SDS_P1;SDS_P2;PMS_P1;PMS_P2;Temp;Humidity;BMP_temperature;BMP_pressure;BME280_temperature;BME280_humidity;BME280_pressure;Samples;Min_cycle;Max_cycle;Signal;HPM_P1;HPM_P2
2022/02/24 00:00:49;;;;;;;2.23;0.93;;;;;;;5.50;74.30;100510.59;5132003;27;20180;-74
2022/02/24 00:03:15;;;;;;;2.37;0.60;;;;;;;5.56;74.04;100503.25;5133636;27;20216;-74
2022/02/24 00:05:40;;;;;;;1.70;0.70;;;;;;;5.61;73.90;100506.72;5133488;27;20168;-73
2022/02/24 00:08:05;;;;;;;2.63;0.93;;;;;;;5.52;74.16;100497.56;5133187;27;20169;-73
2022/02/24 00:10:31;;;;;;;4.23;1.20;;;;;;;5.38;74.42;100483.00;5129946;27;20317;-73
2022/02/24 00:12:56;;;;;;;4.73;0.90;;;;;;;5.48;74.42;100474.00;5138697;27;20216;-74
2022/02/24 00:15:21;;;;;;;3.87;1.20;;;;;;;5.44;74.33;100472.94;5143110;27;20168;-76
2022/02/24 00:17:47;;;;;;;8.77;1.20;;;;;;;5.45;74.68;100458.28;5144619;27;20172;-74
2022/02/24 00:20:12;;;;;;;2.43;1.00;;;;;;;5.46;74.17;100460.72;5132737;27;20179;-74
2022/02/24 00:22:38;;;;;;;2.47;1.00;;;;;;;5.25;74.78;100453.78;5134002;27;20775;-74
2022/02/24 00:25:05;;;;;;;2.60;1.10;;;;;;;4.89;75.66;100443.00;5133444;27;20168;-74
2022/02/24 00:27:30;;;;;;;1.77;1.00;;;;;;;4.92;76.28;100444.34;5131879;27;20169;-74
2022/02/24 00:29:55;;;;;;;2.13;1.00;;;;;;;4.81;76.75;100438.16;5131861;27;20207;-74
2022/02/24 00:32:21;;;;;;;2.90;0.80;;;;;;;4.63;77.39;100431.44;5133397;27;20165;-74
2022/02/24 00:34:46;;;;;;;1.03;0.80;;;;;;;4.78;77.14;100436.81;5133662;27;20226;-75
2022/02/24 00:37:13;;;;;;;2.93;1.27;;;;;;;4.89;76.90;100431.38;5133040;27;20188;-74
2022/02/24 00:39:38;;;;;;;1.43;0.90;;;;;;;4.73;76.93;100433.28;5120560;27;20709;-75
2022/02/24 00:42:04;;;;;;;5.07;1.47;;;;;;;4.59;77.50;100433.03;5112615;28;20184;-78
2022/02/24 00:44:29;;;;;;;7.13;1.67;;;;;;;4.48;78.00;100429.53;5112768;28;20272;-77
2022/02/24 00:46:54;;;;;;;2.73;0.87;;;;;;;4.57;78.03;100429.78;5112406;28;20488;-76
2022/02/24 00:49:22;;;;;;;4.60;1.30;;;;;;;4.50;78.55;100429.28;5112345;28;20672;-74
2022/02/24 00:51:48;;;;;;;1.80;1.00;;;;;;;4.49;78.19;100416.84;5112442;28;20169;-73
2022/02/24 00:54:14;;;;;;;1.73;0.93;;;;;;;4.51;78.23;100427.38;5112624;28;20218;-74
2022/02/24 00:56:40;;;;;;;4.97;1.03;;;;;;;4.45;78.24;100419.25;5110984;28;20180;-74
2022/02/24 00:59:05;;;;;;;2.37;1.13;;;;;;;4.46;78.66;100420.88;5112592;28;20177;-74
2022/02/24 01:01:30;;;;;;;2.43;1.00;;;;;;;4.53;77.89;100408.97;5112523;28;20268;-74
2022/02/24 01:03:55;;;;;;;5.43;1.27;;;;;;;4.55;78.05;100413.03;5112270;28;20479;-75
2022/02/24 01:06:21;;;;;;;1.83;1.07;;;;;;;4.56;78.08;100403.81;5112136;28;20177;-74
2022/02/24 01:08:46;;;;;;;1.77;0.90;;;;;;;4.73;77.89;100409.75;5111979;28;20197;-74
2022/02/24 01:11:12;;;;;;;1.87;0.90;;;;;;;4.74;78.27;100399.72;5112127;28;20177;-74
2022/02/24 01:13:37;;;;;;;2.27;1.20;;;;;;;4.73;78.76;100403.53;5112429;28;20636;-74
2022/02/24 01:16:03;;;;;;;3.23;0.80;;;;;;;4.81;78.97;100396.75;5111159;28;20586;-73
2022/02/24 01:18:29;;;;;;;0.93;0.80;;;;;;;4.88;78.01;100402.69;5112030;28;20181;-74
2022/02/24 01:20:55;;;;;;;1.83;0.90;;;;;;;4.97;77.52;100401.03;5112312;28;20169;-73
2022/02/24 01:23:20;;;;;;;5.00;1.00;;;;;;;5.10;77.90;100394.25;5112114;28;20177;-73
2022/02/24 01:25:46;;;;;;;1.30;0.93;;;;;;;5.06;77.42;100393.97;5111577;28;20245;-74
2022/02/24 01:28:11;;;;;;;3.47;1.00;;;;;;;5.15;77.38;100386.91;5110958;28;20177;-73
2022/02/24 01:30:37;;;;;;;2.57;1.07;;;;;;;5.14;77.84;100387.19;5111905;28;20176;-75
2022/02/24 01:33:02;;;;;;;1.77;0.73;;;;;;;5.06;77.75;100383.97;5112061;28;20177;-75
2022/02/24 01:35:28;;;;;;;0.70;0.70;;;;;;;5.29;76.29;100379.00;5111859;28;20220;-74
2022/02/24 01:37:53;;;;;;;0.10;0.00;;;;;;;5.70;74.36;100386.91;5109759;28;20184;-75
2022/02/24 01:40:19;;;;;;;0.60;0.40;;;;;;;5.97;72.75;100379.19;5112830;28;20607;-73
2022/02/24 01:42:45;;;;;;;0.50;0.40;;;;;;;6.06;72.02;100366.63;5112345;28;20181;-75
2022/02/24 01:45:12;;;;;;;0.40;0.40;;;;;;;6.19;71.13;100368.69;5112551;28;20184;-73
2022/02/24 01:47:39;;;;;;;0.40;0.40;;;;;;;6.31;70.38;100356.66;5112308;28;20180;-74
2022/02/24 01:50:06;;;;;;;0.47;0.27;;;;;;;6.45;69.54;100352.19;5112174;28;20217;-73
2022/02/24 01:52:32;;;;;;;1.77;0.90;;;;;;;6.39;69.82;100335.16;5112111;28;20256;-73
2022/02/24 01:54:57;;;;;;;1.40;0.50;;;;;;;6.40;69.92;100339.47;5112868;28;20271;-72
2022/02/24 01:57:22;;;;;;;0.07;0.07;;;;;;;6.55;68.98;100335.81;5111826;28;20231;-72
2022/02/24 01:59:48;;;;;;;0.20;0.20;;;;;;;6.62;69.08;100336.25;5112429;28;20373;-72
2022/02/24 02:02:14;;;;;;;1.37;0.57;;;;;;;6.64;68.54;100327.81;5115735;28;20180;-74
2022/02/24 02:04:40;;;;;;;3.07;1.17;;;;;;;6.67;68.51;100333.50;5141547;27;20524;-75
2022/02/24 02:07:05;;;;;;;0.53;0.53;;;;;;;6.68;68.56;100324.28;5143654;27;20179;-74
2022/02/24 02:09:31;;;;;;;0.30;0.30;;;;;;;6.75;67.94;100315.75;5140563;27;20416;-74
2022/02/24 02:11:57;;;;;;;0.80;0.53;;;;;;;6.79;68.19;100328.47;5131517;27;20623;-73
2022/02/24 02:14:22;;;;;;;4.80;0.37;;;;;;;6.84;67.78;100312.13;5131631;27;20220;-74
2022/02/24 02:16:50;;;;;;;1.37;0.73;;;;;;;6.78;68.66;100288.84;5131426;27;20224;-73
2022/02/24 02:19:16;;;;;;;1.17;0.90;;;;;;;6.77;68.29;100291.84;5131570;27;20179;-72
2022/02/24 02:21:43;;;;;;;2.03;0.83;;;;;;;6.79;68.41;100287.75;5131474;27;20199;-71
2022/02/24 02:24:08;;;;;;;4.93;0.50;;;;;;;6.76;68.29;100282.91;5131436;27;20204;-72
2022/02/24 02:26:34;;;;;;;0.10;0.10;;;;;;;6.78;68.38;100275.25;5131361;27;20198;-72
2022/02/24 02:29:02;;;;;;;4.37;0.90;;;;;;;6.74;68.72;100276.94;5120357;27;20296;-72
2022/02/24 02:31:28;;;;;;;1.97;0.97;;;;;;;6.74;68.78;100268.81;5109449;28;20177;-72
2022/02/24 02:34:07;;;;;;;0.10;0.10;;;;;;;6.75;68.61;100267.69;5110861;28;20667;-72
2022/02/24 02:36:34;;;;;;;3.17;0.80;;;;;;;6.71;68.91;100271.28;5110547;28;20196;-72
2022/02/24 02:39:00;;;;;;;0.33;0.33;;;;;;;6.75;68.64;100269.63;5113780;28;20192;-72
2022/02/24 02:41:30;;;;;;;1.70;0.83;;;;;;;6.72;68.55;100264.75;5114689;28;20532;-72
2022/02/24 02:43:56;;;;;;;1.03;0.90;;;;;;;6.75;68.78;100256.84;5113423;28;20659;-72
2022/02/24 02:46:22;;;;;;;3.23;1.97;;;;;;;6.77;68.82;100251.94;5114570;28;20631;-72
2022/02/24 02:48:47;;;;;;;0.87;0.77;;;;;;;6.82;68.59;100248.38;5114342;27;20230;-73
2022/02/24 02:51:13;;;;;;;0.73;0.57;;;;;;;6.83;68.53;100242.63;5114392;28;20659;-72
2022/02/24 02:53:39;;;;;;;1.57;1.13;;;;;;;6.74;68.89;100235.41;5114333;28;20183;-72
2022/02/24 02:56:04;;;;;;;2.50;1.43;;;;;;;6.83;68.48;100236.41;5114704;28;20180;-72
2022/02/24 02:58:30;;;;;;;0.67;0.10;;;;;;;6.84;68.54;100227.97;5114491;28;20179;-72
2022/02/24 03:00:56;;;;;;;0.47;0.30;;;;;;;6.92;68.00;100231.91;5114271;28;20179;-72
2022/02/24 03:03:24;;;;;;;2.90;0.90;;;;;;;6.84;68.03;100225.25;5114286;28;20563;-73
2022/02/24 03:05:52;;;;;;;0.63;0.63;;;;;;;6.91;68.11;100191.47;5114224;28;20636;-72
2022/02/24 03:08:18;;;;;;;1.77;1.33;;;;;;;6.88;68.47;100224.66;5114036;28;20473;-72
2022/02/24 03:10:44;;;;;;;2.30;1.40;;;;;;;6.93;68.02;100211.00;5114383;27;20177;-72
2022/02/24 03:13:09;;;;;;;0.53;0.30;;;;;;;6.95;68.20;100204.19;5114431;28;20684;-72
2022/02/24 03:15:35;;;;;;;2.43;1.03;;;;;;;7.01;67.77;100222.03;5114024;28;20166;-72
2022/02/24 03:18:00;;;;;;;2.43;0.73;;;;;;;7.02;67.67;100206.53;5113788;28;20174;-72
2022/02/24 03:20:30;;;;;;;1.50;0.57;;;;;;;7.08;67.67;100206.16;5113745;28;20177;-72
2022/02/24 03:22:56;;;;;;;3.47;0.83;;;;;;;7.10;67.19;100206.69;5114060;28;20173;-72
2022/02/24 03:25:22;;;;;;;0.80;0.73;;;;;;;7.10;67.60;100198.53;5113807;28;20625;-74
2022/02/24 03:27:47;;;;;;;0.17;0.10;;;;;;;7.18;67.05;100196.25;5113909;28;20660;-72
2022/02/24 03:30:12;;;;;;;4.20;1.00;;;;;;;7.16;67.14;100185.69;5123724;27;20204;-72
2022/02/24 03:32:38;;;;;;;0.70;0.70;;;;;;;7.18;66.91;100182.66;5134355;27;20176;-72
2022/02/24 03:35:04;;;;;;;6.47;1.40;;;;;;;7.19;67.24;100182.38;5134195;27;20168;-72
2022/02/24 03:37:29;;;;;;;0.57;0.40;;;;;;;7.20;66.82;100180.47;5133926;27;20184;-72
2022/02/24 03:39:54;;;;;;;1.80;1.13;;;;;;;7.20;67.19;100183.16;5134112;27;20574;-72
2022/02/24 03:42:20;;;;;;;3.40;1.30;;;;;;;7.18;67.67;100190.81;5134057;27;20650;-71
2022/02/24 03:44:46;;;;;;;1.03;0.60;;;;;;;7.16;67.46;100178.34;5133979;27;20165;-72
2022/02/24 03:47:11;;;;;;;1.97;0.70;;;;;;;7.17;67.45;100176.44;5133835;27;20195;-72
2022/02/24 03:49:36;;;;;;;0.60;0.60;;;;;;;7.12;68.00;100177.31;5133150;27;20282;-72
2022/02/24 03:52:02;;;;;;;0.70;0.50;;;;;;;7.10;68.45;100170.56;5133844;27;20207;-72
2022/02/24 03:54:27;;;;;;;2.90;1.33;;;;;;;7.09;68.00;100166.25;5133909;27;20216;-72
2022/02/24 03:56:52;;;;;;;1.20;0.70;;;;;;;7.08;67.86;100165.41;5133609;27;20251;-72
2022/02/24 03:59:18;;;;;;;3.27;0.67;;;;;;;7.10;68.22;100162.41;5133722;27;20260;-72
2022/02/24 04:01:43;;;;;;;0.90;0.90;;;;;;;7.10;68.21;100157.78;5132319;27;20176;-72
2022/02/24 04:04:08;;;;;;;2.97;1.00;;;;;;;7.12;68.10;100160.22;5133717;27;20165;-72
2022/02/24 04:06:34;;;;;;;1.57;0.40;;;;;;;7.12;67.98;100155.59;5133649;27;20184;-72
2022/02/24 04:08:59;;;;;;;0.20;0.20;;;;;;;7.11;68.43;100153.97;5133419;27;20224;-72
2022/02/24 04:11:24;;;;;;;0.33;0.13;;;;;;;7.11;68.33;100148.53;5133451;27;20175;-72
2022/02/24 04:13:50;;;;;;;0.93;0.50;;;;;;;7.07;68.76;100146.69;5133493;27;20172;-72
2022/02/24 04:16:15;;;;;;;0.37;0.30;;;;;;;7.10;69.13;100151.56;5133284;27;20173;-72
2022/02/24 04:18:40;;;;;;;1.07;1.07;;;;;;;7.14;69.32;100149.84;5133302;27;20627;-74
2022/02/24 04:21:06;;;;;;;0.43;0.40;;;;;;;7.15;69.55;100135.16;5133182;27;20653;-74
2022/02/24 04:23:31;;;;;;;10.40;0.97;;;;;;;7.22;69.22;100141.00;5133254;27;20524;-73
2022/02/24 04:25:57;;;;;;;1.73;0.53;;;;;;;7.23;69.14;100134.47;5133252;27;20168;-73
2022/02/24 04:28:22;;;;;;;0.30;0.10;;;;;;;7.26;69.06;100131.19;5132438;27;20200;-73
2022/02/24 04:30:47;;;;;;;0.67;0.27;;;;;;;7.31;69.09;100133.81;5133036;27;20657;-74
2022/02/24 04:33:13;;;;;;;1.30;0.63;;;;;;;7.33;68.26;100133.50;5131575;27;20217;-74
2022/02/24 04:35:39;;;;;;;0.87;0.87;;;;;;;7.34;68.40;100129.69;5132723;27;20176;-74
2022/02/24 04:38:04;;;;;;;4.23;0.87;;;;;;;7.41;67.80;100141.81;5132690;27;20263;-73
2022/02/24 04:40:30;;;;;;;0.30;0.30;;;;;;;7.42;67.31;100129.03;5133001;27;20263;-73
2022/02/24 04:42:55;;;;;;;0.30;0.30;;;;;;;7.42;67.47;100129.81;5133245;27;20211;-73
2022/02/24 04:45:21;;;;;;;0.63;0.63;;;;;;;7.40;67.49;100123.09;5132828;27;20226;-73
2022/02/24 04:47:46;;;;;;;0.90;0.80;;;;;;;7.47;67.03;100120.78;5132751;27;20173;-74
2022/02/24 04:50:12;;;;;;;1.23;0.67;;;;;;;7.43;67.65;100117.03;5132705;27;20291;-73
2022/02/24 04:52:38;;;;;;;0.97;0.57;;;;;;;7.47;67.05;100107.97;5131250;27;20837;-73
2022/02/24 04:55:05;;;;;;;0.77;0.63;;;;;;;7.51;67.01;100101.94;5132750;27;20169;-73
2022/02/24 04:57:32;;;;;;;3.70;0.50;;;;;;;7.56;66.63;100108.13;5132383;27;20172;-73
2022/02/24 04:59:58;;;;;;;2.00;0.80;;;;;;;7.55;66.20;100109.22;5132527;27;20179;-73
2022/02/24 05:02:23;;;;;;;1.60;0.77;;;;;;;7.49;66.85;100099.53;5132493;27;20175;-73
2022/02/24 05:04:49;;;;;;;1.27;1.17;;;;;;;7.50;67.06;100098.41;5132657;27;20263;-73
2022/02/24 05:07:15;;;;;;;2.87;0.80;;;;;;;7.50;67.25;100101.13;5132175;27;20172;-73
2022/02/24 05:09:40;;;;;;;0.30;0.10;;;;;;;7.49;67.00;100102.25;5132541;27;20561;-74
2022/02/24 05:12:06;;;;;;;1.70;1.33;;;;;;;7.47;67.74;100085.44;5131002;27;20180;-73
2022/02/24 05:14:32;;;;;;;3.40;0.50;;;;;;;7.48;67.21;100081.59;5131402;27;20232;-73
2022/02/24 05:16:58;;;;;;;0.73;0.67;;;;;;;7.51;66.85;100089.16;5111462;28;20621;-73
2022/02/24 05:19:24;;;;;;;0.87;0.30;;;;;;;7.49;66.79;100083.22;5111642;28;20265;-73
2022/02/24 05:21:49;;;;;;;0.90;0.53;;;;;;;7.49;66.97;100072.34;5111616;28;20260;-74
2022/02/24 05:24:15;;;;;;;1.33;0.27;;;;;;;7.49;66.82;100088.66;5111512;28;20530;-73
2022/02/24 05:26:40;;;;;;;0.50;0.50;;;;;;;7.53;66.99;100083.44;5111315;28;20236;-73
2022/02/24 05:29:05;;;;;;;2.23;0.80;;;;;;;7.51;67.10;100075.56;5111315;28;20204;-74
2022/02/24 05:31:31;;;;;;;0.47;0.47;;;;;;;7.47;67.23;100082.72;5111418;28;20702;-74
2022/02/24 05:33:56;;;;;;;1.70;1.00;;;;;;;7.46;67.18;100070.22;5111537;28;20649;-73
2022/02/24 05:36:21;;;;;;;0.63;0.40;;;;;;;7.45;67.54;100085.75;5111244;28;20269;-73
2022/02/24 05:38:47;;;;;;;1.93;1.07;;;;;;;7.44;67.44;100077.88;5111128;28;20201;-73
2022/02/24 05:41:12;;;;;;;2.17;0.87;;;;;;;7.41;68.25;100070.34;5111383;28;20172;-74
2022/02/24 05:43:38;;;;;;;1.53;1.03;;;;;;;7.40;68.15;100066.00;5110380;28;20201;-73
2022/02/24 05:46:04;;;;;;;3.77;1.20;;;;;;;7.40;68.44;100063.28;5111384;28;20596;-74
2022/02/24 05:48:29;;;;;;;2.63;1.23;;;;;;;7.35;69.02;100057.94;5109746;28;20223;-73
2022/02/24 05:50:54;;;;;;;1.73;1.40;;;;;;;7.36;69.01;100059.53;5111324;28;20173;-73
2022/02/24 05:53:20;;;;;;;3.90;1.33;;;;;;;7.37;69.31;100061.16;5111194;28;20173;-73
2022/02/24 05:55:45;;;;;;;0.23;0.23;;;;;;;7.38;69.12;100050.00;5111307;28;20209;-73
2022/02/24 05:58:10;;;;;;;2.80;1.30;;;;;;;7.29;69.10;100048.28;5110994;28;20173;-73
2022/02/24 06:00:36;;;;;;;0.80;0.77;;;;;;;7.32;69.94;100050.38;5111178;28;20174;-73
2022/02/24 06:03:01;;;;;;;1.70;0.90;;;;;;;7.33;69.35;100041.13;5109830;28;20646;-74
2022/02/24 06:05:27;;;;;;;1.63;0.70;;;;;;;7.32;69.34;100051.19;5111085;28;20178;-74
2022/02/24 06:07:52;;;;;;;1.33;1.00;;;;;;;7.30;69.78;100047.16;5110830;28;20199;-74
2022/02/24 06:10:17;;;;;;;1.73;0.80;;;;;;;7.33;70.12;100060.13;5110934;28;20201;-72
2022/02/24 06:12:43;;;;;;;0.80;0.70;;;;;;;7.31;69.71;100051.50;5112330;28;20586;-73
2022/02/24 06:15:09;;;;;;;4.30;1.17;;;;;;;7.28;69.86;100057.53;5115274;28;20782;-73
2022/02/24 06:17:35;;;;;;;1.67;0.83;;;;;;;7.31;69.98;100067.78;5115093;28;20173;-74
2022/02/24 06:20:02;;;;;;;6.13;1.13;;;;;;;7.20;70.18;100050.06;5115153;28;20173;-73
2022/02/24 06:22:28;;;;;;;2.63;0.83;;;;;;;7.31;70.07;100062.34;5115041;28;20250;-73
2022/02/24 06:24:53;;;;;;;3.97;0.77;;;;;;;7.33;70.02;100054.72;5114933;28;20178;-73
2022/02/24 06:27:19;;;;;;;5.20;1.30;;;;;;;7.33;69.86;100043.84;5114897;28;20177;-72
2022/02/24 06:29:45;;;;;;;1.57;0.80;;;;;;;7.35;69.66;100047.06;5114771;28;20538;-74
2022/02/24 06:32:13;;;;;;;6.57;1.37;;;;;;;7.35;69.79;100039.72;5114799;28;20225;-73
2022/02/24 06:34:38;;;;;;;3.57;1.03;;;;;;;7.34;69.87;100040.00;5114839;28;20299;-72
2022/02/24 06:37:03;;;;;;;1.10;1.03;;;;;;;7.33;69.88;100038.41;5114757;28;20272;-71
2022/02/24 06:39:29;;;;;;;0.30;0.30;;;;;;;7.32;70.68;100034.88;5114621;28;20173;-71
2022/02/24 06:41:54;;;;;;;0.73;0.60;;;;;;;7.32;70.36;100040.31;5114705;28;20742;-71
2022/02/24 06:44:19;;;;;;;1.70;1.03;;;;;;;7.32;70.46;100042.22;5114633;28;20199;-72
2022/02/24 06:46:45;;;;;;;0.80;0.80;;;;;;;7.29;70.67;100029.25;5114192;28;20259;-71
2022/02/24 06:49:10;;;;;;;2.27;1.20;;;;;;;7.30;70.83;100030.84;5113987;28;20215;-72
2022/02/24 06:51:36;;;;;;;3.27;1.10;;;;;;;7.30;70.99;100026.22;5114063;28;20173;-71
2022/02/24 06:54:02;;;;;;;4.83;1.20;;;;;;;7.31;70.49;100033.28;5112759;28;20196;-71
2022/02/24 06:56:27;;;;;;;1.93;0.80;;;;;;;7.31;71.30;100027.84;5114075;28;20173;-72
2022/02/24 06:58:53;;;;;;;1.20;0.43;;;;;;;7.32;70.81;100023.22;5113781;28;20289;-71
2022/02/24 07:01:18;;;;;;;5.57;1.10;;;;;;;7.31;71.07;100022.41;5113810;28;20177;-72
2022/02/24 07:03:44;;;;;;;3.17;1.40;;;;;;;7.29;71.29;100023.81;5113846;28;20174;-72
2022/02/24 07:06:10;;;;;;;1.43;0.90;;;;;;;7.28;71.40;100011.34;5113743;28;20224;-71
2022/02/24 07:08:36;;;;;;;4.83;1.17;;;;;;;7.28;71.53;100012.13;5113569;28;20279;-71
2022/02/24 07:11:02;;;;;;;2.87;0.90;;;;;;;7.31;71.26;100008.81;5113664;28;20268;-72
2022/02/24 07:13:28;;;;;;;0.80;0.80;;;;;;;7.32;71.50;100006.91;5127259;27;20245;-72
2022/02/24 07:15:53;;;;;;;3.63;0.93;;;;;;;7.29;71.69;100007.50;5148797;27;20783;-74
2022/02/24 07:18:19;;;;;;;3.13;0.93;;;;;;;7.31;71.48;99989.00;5150916;27;20575;-73
2022/02/24 07:20:44;;;;;;;4.80;2.63;;;;;;;7.33;71.18;100001.16;5133778;27;20378;-74
2022/02/24 07:23:10;;;;;;;1.57;1.07;;;;;;;7.35;71.77;100004.38;5141686;27;20180;-73
2022/02/24 07:25:35;;;;;;;1.57;1.17;;;;;;;7.36;71.41;100000.56;5144615;27;20256;-73
2022/02/24 07:28:00;;;;;;;2.63;1.00;;;;;;;7.36;71.67;100002.47;5153736;27;20179;-73
2022/02/24 07:30:29;;;;;;;2.17;1.30;;;;;;;7.39;71.69;99994.53;5142996;27;20212;-76
2022/02/24 07:32:54;;;;;;;2.93;0.80;;;;;;;7.39;72.00;99996.47;5126916;27;20229;-73
2022/02/24 07:35:20;;;;;;;2.33;1.50;;;;;;;7.40;72.39;99988.00;5143372;27;20168;-72
2022/02/24 07:37:45;;;;;;;1.10;0.67;;;;;;;7.42;72.28;99990.41;5145598;27;20184;-73
2022/02/24 07:40:11;;;;;;;2.87;1.70;;;;;;;7.40;71.72;99981.75;5134091;27;20638;-73
2022/02/24 07:42:36;;;;;;;1.73;1.27;;;;;;;7.38;71.24;99979.34;5133814;27;20284;-72
2022/02/24 07:45:04;;;;;;;1.40;1.03;;;;;;;7.39;72.35;99975.53;5132483;27;20183;-72
2022/02/24 07:47:29;;;;;;;5.13;1.40;;;;;;;7.42;72.13;99968.69;5132498;27;20189;-72
2022/02/24 07:49:55;;;;;;;2.43;1.20;;;;;;;7.41;71.88;99964.34;5146167;27;20204;-72
2022/02/24 07:52:22;;;;;;;2.20;1.10;;;;;;;7.40;71.80;99963.53;5148938;27;20199;-73
2022/02/24 07:54:47;;;;;;;2.93;1.10;;;;;;;7.35;72.43;99952.75;5133458;27;20168;-74
2022/02/24 07:57:13;;;;;;;3.03;1.23;;;;;;;7.32;72.74;99958.78;5129299;27;20191;-75
2022/02/24 07:59:38;;;;;;;1.30;0.90;;;;;;;7.42;72.65;99976.81;5148851;27;20244;-74
2022/02/24 08:02:03;;;;;;;1.73;1.00;;;;;;;7.41;71.91;99954.28;5148995;27;20308;-73
2022/02/24 08:04:29;;;;;;;2.10;1.37;;;;;;;7.39;72.64;99937.47;5133644;27;20183;-74
2022/02/24 08:06:54;;;;;;;1.73;1.10;;;;;;;7.46;72.12;99942.50;5132991;27;20176;-77
2022/02/24 08:09:19;;;;;;;3.37;1.37;;;;;;;7.42;71.77;99955.88;5133041;27;20663;-73
2022/02/24 08:12:38;;;;;;;4.10;1.20;;;;;;;7.47;72.70;99941.38;5132834;27;20215;-75
2022/02/24 08:14:30;;;;;;;3.30;1.30;;;;;;;7.50;71.96;99954.38;5141675;27;20180;-75
2022/02/24 08:16:56;;;;;;;2.30;1.20;;;;;;;7.48;71.59;99940.28;5133912;27;20168;-75
2022/02/24 08:19:21;;;;;;;4.83;1.30;;;;;;;7.49;72.04;99939.16;5152696;27;20529;-75
2022/02/24 08:21:46;;;;;;;3.03;1.40;;;;;;;7.40;71.85;99932.84;5153557;27;20191;-75
2022/02/24 08:24:12;;;;;;;1.87;1.23;;;;;;;7.45;72.23;99927.28;5153625;27;20438;-75
2022/02/24 08:26:37;;;;;;;2.63;1.20;;;;;;;7.45;71.79;99921.84;5153266;27;20172;-78
2022/02/24 08:29:02;;;;;;;1.10;0.80;;;;;;;7.48;72.29;99923.97;5153196;27;20220;-74
2022/02/24 08:31:28;;;;;;;2.20;0.83;;;;;;;7.58;71.31;99923.75;5153695;27;20175;-74
2022/02/24 08:33:54;;;;;;;2.63;1.17;;;;;;;7.56;71.52;99912.41;5153634;27;20647;-75
2022/02/24 08:36:19;;;;;;;1.13;0.70;;;;;;;7.62;70.70;99899.47;5152850;27;20592;-74
2022/02/24 08:38:45;;;;;;;1.63;0.93;;;;;;;7.66;71.04;99893.13;5153230;27;20274;-74
2022/02/24 08:41:10;;;;;;;1.87;0.83;;;;;;;7.63;71.61;99884.78;5144300;27;20259;-74
2022/02/24 08:43:36;;;;;;;1.27;1.17;;;;;;;7.78;70.89;99875.47;5132871;27;20176;-73
2022/02/24 08:46:01;;;;;;;2.73;1.00;;;;;;;7.81;70.85;99864.81;5137138;27;20172;-73
2022/02/24 08:48:26;;;;;;;5.23;1.00;;;;;;;7.88;70.64;99864.38;5132414;27;20245;-73
2022/02/24 08:50:52;;;;;;;2.60;1.20;;;;;;;7.88;70.74;99864.38;5132489;27;20179;-74
2022/02/24 08:53:17;;;;;;;1.87;0.60;;;;;;;7.96;70.48;99860.94;5132633;27;20221;-73
2022/02/24 08:55:42;;;;;;;2.57;1.67;;;;;;;7.93;70.46;99859.63;5132393;27;20217;-74
2022/02/24 08:58:08;;;;;;;1.83;0.90;;;;;;;8.02;69.96;99859.69;5132155;27;20169;-73
2022/02/24 09:00:34;;;;;;;1.50;1.07;;;;;;;8.06;69.77;99853.31;5132991;27;20169;-73
2022/02/24 09:03:00;;;;;;;3.57;1.33;;;;;;;8.06;70.11;99857.94;5132261;27;20203;-73
2022/02/24 09:05:25;;;;;;;4.97;1.10;;;;;;;8.05;70.83;99851.72;5132805;27;20569;-73
2022/02/24 09:07:51;;;;;;;0.97;0.50;;;;;;;8.15;70.01;99842.50;5132109;27;20233;-72
2022/02/24 09:10:16;;;;;;;0.53;0.40;;;;;;;8.20;68.97;99833.41;5132458;27;20243;-74
2022/02/24 09:12:41;;;;;;;1.37;0.80;;;;;;;8.24;69.61;99824.28;5132008;27;20207;-73
2022/02/24 09:15:07;;;;;;;0.90;0.87;;;;;;;8.28;69.67;99817.13;5131915;27;20177;-73
2022/02/24 09:17:34;;;;;;;0.93;0.60;;;;;;;8.35;68.44;99817.53;5131758;27;20188;-72
2022/02/24 09:19:59;;;;;;;1.23;0.93;;;;;;;8.43;68.89;99813.25;5131817;27;20175;-73
2022/02/24 09:22:25;;;;;;;1.40;0.80;;;;;;;8.49;68.87;99814.72;5131911;27;20273;-73
2022/02/24 09:24:50;;;;;;;1.47;0.80;;;;;;;8.57;68.72;99808.50;5131421;27;20456;-73
2022/02/24 09:27:15;;;;;;;3.37;1.00;;;;;;;8.63;68.80;99798.28;5130455;27;20168;-72
2022/02/24 09:29:41;;;;;;;2.17;0.63;;;;;;;8.66;67.92;99797.66;5131890;27;20568;-73
2022/02/24 09:32:06;;;;;;;2.47;1.13;;;;;;;8.70;68.23;99795.91;5131763;27;20256;-73
2022/02/24 09:34:32;;;;;;;1.83;0.60;;;;;;;8.71;68.06;99786.63;5132078;27;20526;-73
2022/02/24 09:36:57;;;;;;;1.13;0.83;;;;;;;8.78;67.59;99775.25;5131394;27;20608;-73
2022/02/24 09:39:22;;;;;;;1.10;0.73;;;;;;;8.80;67.84;99767.56;5131477;27;20211;-72
2022/02/24 09:41:48;;;;;;;1.07;0.70;;;;;;;8.85;67.19;99773.69;5128101;27;20185;-72
2022/02/24 09:44:13;;;;;;;3.30;1.00;;;;;;;8.90;67.74;99759.91;5131840;27;20288;-74
2022/02/24 09:46:41;;;;;;;3.67;1.10;;;;;;;9.07;68.06;99747.44;5131568;27;20176;-72
2022/02/24 09:49:08;;;;;;;1.00;0.80;;;;;;;9.13;67.77;99748.91;5131378;27;20229;-72
2022/02/24 09:51:34;;;;;;;0.40;0.20;;;;;;;9.09;67.08;99754.19;5131875;27;20173;-72
2022/02/24 09:54:01;;;;;;;1.90;1.27;;;;;;;9.10;67.13;99754.97;5131827;28;20251;-73
2022/02/24 09:56:29;;;;;;;0.70;0.60;;;;;;;9.13;66.61;99768.00;5131931;27;20164;-72
2022/02/24 09:58:56;;;;;;;3.97;0.80;;;;;;;9.14;66.95;99753.25;5131702;27;20168;-72
2022/02/24 10:01:22;;;;;;;0.77;0.77;;;;;;;9.18;66.86;99752.28;5131810;27;20172;-73
2022/02/24 10:04:00;;;;;;;0.20;0.20;;;;;;;9.12;66.97;99742.66;5131850;27;20279;-71
2022/02/24 10:06:43;;;;;;;0.10;0.10;;;;;;;9.13;66.98;99730.66;5120853;27;20165;-73
2022/02/24 10:09:10;;;;;;;2.67;0.87;;;;;;;9.14;67.63;99729.53;5110998;28;20288;-72
2022/02/24 10:11:39;;;;;;;2.70;1.07;;;;;;;9.20;67.09;99724.69;5109887;28;20165;-72
2022/02/24 10:14:10;;;;;;;1.20;0.87;;;;;;;9.28;67.09;99706.75;5111048;28;20536;-72
2022/02/24 10:16:56;;;;;;;2.57;1.77;;;;;;;9.39;66.47;99714.28;5111051;28;20661;-73
2022/02/24 10:19:43;;;;;;;1.47;1.20;;;;;;;9.42;66.21;99708.22;5111068;28;20169;-74
2022/02/24 10:22:16;;;;;;;1.93;1.00;;;;;;;9.53;65.67;99697.75;5110705;28;20680;-73
2022/02/24 10:24:54;;;;;;;0.50;0.50;;;;;;;9.62;65.82;99689.56;5110409;28;20165;-73
2022/02/24 10:27:31;;;;;;;2.30;1.10;;;;;;;9.59;65.28;99693.75;5117181;27;20700;-72
2022/02/24 10:30:13;;;;;;;2.27;0.83;;;;;;;9.51;64.51;99678.19;5133078;27;20202;-72
2022/02/24 10:32:43;;;;;;;0.40;0.40;;;;;;;9.50;65.21;99682.84;5151081;27;20168;-72
2022/02/24 10:35:27;;;;;;;1.30;0.90;;;;;;;9.58;65.57;99666.81;5151649;27;20172;-72
2022/02/24 10:38:28;;;;;;;1.30;0.83;;;;;;;9.58;64.95;99662.16;5151393;27;20210;-72
2022/02/24 10:40:56;;;;;;;0.60;0.30;;;;;;;9.61;65.13;99664.22;5118315;27;20183;-72
2022/02/24 10:43:29;;;;;;;0.47;0.47;;;;;;;9.72;65.32;99675.59;5151685;27;20192;-72
2022/02/24 10:46:06;;;;;;;2.07;1.30;;;;;;;9.73;64.70;99655.38;5151750;27;20266;-72
2022/02/24 10:48:46;;;;;;;1.27;0.70;;;;;;;9.83;65.24;99635.91;5151354;27;20168;-72
2022/02/24 10:51:11;;;;;;;0.37;0.37;;;;;;;9.85;65.03;99660.97;5151590;27;20171;-72
2022/02/24 10:53:37;;;;;;;0.30;0.30;;;;;;;9.84;65.09;99637.53;5150259;27;20523;-72
2022/02/24 10:56:06;;;;;;;0.23;0.23;;;;;;;9.70;65.00;99615.94;5151496;27;20239;-72
2022/02/24 10:58:35;;;;;;;1.67;0.43;;;;;;;9.71;65.04;99605.81;5151895;27;20191;-72
2022/02/24 11:01:09;;;;;;;0.20;0.20;;;;;;;9.88;65.56;99607.66;5155319;27;20168;-72
2022/02/24 11:03:36;;;;;;;0.40;0.40;;;;;;;9.82;65.61;99598.84;5155645;27;20491;-72
2022/02/24 11:06:04;;;;;;;0.20;0.20;;;;;;;9.78;65.32;99589.72;5155280;27;20160;-72
2022/02/24 11:08:31;;;;;;;1.30;0.93;;;;;;;9.69;65.86;99575.31;5154854;27;20164;-73
2022/02/24 11:10:57;;;;;;;0.20;0.10;;;;;;;9.64;65.58;99572.78;5155028;27;20263;-72
2022/02/24 11:13:23;;;;;;;3.20;0.80;;;;;;;9.81;65.99;99573.50;5155280;27;20247;-74
2022/02/24 11:15:50;;;;;;;1.13;0.63;;;;;;;9.92;66.05;99556.78;5155241;27;20195;-72
2022/02/24 11:18:16;;;;;;;2.57;1.13;;;;;;;9.98;65.91;99559.00;5154771;27;20196;-72
2022/02/24 11:20:42;;;;;;;0.10;0.10;;;;;;;10.06;65.66;99554.59;5155036;27;20174;-72
2022/02/24 11:23:07;;;;;;;0.87;0.80;;;;;;;10.11;65.56;99538.03;5153464;27;20634;-72
2022/02/24 11:25:39;;;;;;;0.83;0.23;;;;;;;10.36;64.87;99556.22;5154448;27;20164;-72
2022/02/24 11:28:06;;;;;;;0.10;0.10;;;;;;;10.23;63.91;99540.88;5154627;27;20204;-73
2022/02/24 11:30:32;;;;;;;0.30;0.30;;;;;;;10.22;64.45;99524.84;5154628;27;20402;-72
2022/02/24 11:32:58;;;;;;;1.43;0.63;;;;;;;10.39;64.60;99524.72;5154789;27;20448;-73